createdAt,value
2017-01-19T00:00:51.786Z,14.17
2017-01-19T00:02:01.555Z,14.14
2017-01-19T00:03:11.283Z,14.17
2017-01-19T00:04:21.004Z,14.2
2017-01-19T00:05:30.733Z,14.09
2017-01-19T00:06:40.903Z,14.15
2017-01-19T00:07:51.229Z,14.12
2017-01-19T00:09:01.392Z,14.12
2017-01-19T00:10:10.677Z,14.03
2017-01-19T00:11:20.838Z,14.02
2017-01-19T00:12:30.563Z,14.14
2017-01-19T00:13:40.372Z,14.15
2017-01-19T00:14:50.101Z,14.14
2017-01-19T00:16:00.274Z,14.07
2017-01-19T00:17:10.439Z,14.1
2017-01-19T00:18:20.605Z,14.07
2017-01-19T00:19:30.830Z,14.02
2017-01-19T00:20:40.607Z,14.1
2017-01-19T00:21:50.779Z,14.12
2017-01-19T00:23:00.501Z,14.07
2017-01-19T00:24:09.781Z,14.1
2017-01-19T00:25:20.439Z,14.15
2017-01-19T00:26:30.600Z,14.04
2017-01-19T00:27:40.333Z,13.99
2017-01-19T00:28:50.058Z,14.12
2017-01-19T00:29:59.783Z,13.97
2017-01-19T00:31:09.116Z,14.04
2017-01-19T00:32:18.837Z,14
2017-01-19T00:33:29.002Z,14
2017-01-19T00:34:39.199Z,14.03
2017-01-19T00:35:49.817Z,14.02
2017-01-19T00:37:00.481Z,14.02
2017-01-19T00:38:11.095Z,14.06
2017-01-19T00:39:21.711Z,13.99
2017-01-19T00:40:31.877Z,14.04
2017-01-19T00:41:42.490Z,14.06
2017-01-19T00:42:52.702Z,14.03
2017-01-19T00:44:02.875Z,13.91
2017-01-19T00:45:12.613Z,13.89
2017-01-19T00:46:21.902Z,13.95
2017-01-19T00:47:32.535Z,13.96
2017-01-19T00:48:42.312Z,13.96
2017-01-19T00:49:52.038Z,13.87
2017-01-19T00:51:01.790Z,13.92
2017-01-19T00:52:11.075Z,13.89
2017-01-19T00:53:21.677Z,13.92
2017-01-19T00:54:31.910Z,13.91
2017-01-19T00:55:42.075Z,13.89
2017-01-19T00:56:52.240Z,13.91
2017-01-19T00:58:02.408Z,13.91
2017-01-19T00:59:12.130Z,13.84
2017-01-19T01:00:21.903Z,13.89
2017-01-19T01:01:32.517Z,13.87
2017-01-19T01:02:42.686Z,13.89
2017-01-19T01:03:52.406Z,13.91
2017-01-19T01:05:02.135Z,13.85
2017-01-19T01:06:12.360Z,13.85
2017-01-19T01:07:22.525Z,13.81
2017-01-19T01:08:32.694Z,13.87
2017-01-19T01:09:41.980Z,13.85
2017-01-19T01:10:52.149Z,13.85
2017-01-19T01:12:02.806Z,13.75
2017-01-19T01:13:12.535Z,13.78
2017-01-19T01:14:21.812Z,13.73
2017-01-19T01:15:31.537Z,13.82
2017-01-19T01:16:41.711Z,13.77
2017-01-19T01:17:51.487Z,13.75
2017-01-19T01:19:01.213Z,13.77
2017-01-19T01:20:11.389Z,13.77
2017-01-19T01:21:21.550Z,13.78
2017-01-19T01:22:31.275Z,13.81
2017-01-19T01:23:41.941Z,13.7
2017-01-19T01:24:51.693Z,13.7
2017-01-19T01:26:02.299Z,13.7
2017-01-19T01:27:11.591Z,13.64
2017-01-19T01:28:21.321Z,13.7
2017-01-19T01:29:31.094Z,13.69
2017-01-19T01:30:41.275Z,13.77
2017-01-19T01:31:51.440Z,13.73
2017-01-19T01:33:00.721Z,13.7
2017-01-19T01:34:10.890Z,13.67
2017-01-19T01:35:20.667Z,13.63
2017-01-19T01:36:29.964Z,13.66
2017-01-19T01:37:40.129Z,13.66
2017-01-19T01:38:49.851Z,13.69
2017-01-19T01:39:59.575Z,13.7
2017-01-19T01:41:08.909Z,13.66
2017-01-19T01:42:19.078Z,13.6
2017-01-19T01:43:28.809Z,13.63
2017-01-19T01:44:38.977Z,13.64
2017-01-19T01:45:48.707Z,13.64
2017-01-19T01:46:58.926Z,13.63
2017-01-19T01:48:08.653Z,13.63
2017-01-19T01:49:19.274Z,13.66
2017-01-19T01:50:28.997Z,13.57
2017-01-19T01:51:38.730Z,13.66
2017-01-19T01:52:48.508Z,13.63
2017-01-19T01:53:58.233Z,13.62
2017-01-19T01:55:07.962Z,13.52
2017-01-19T01:56:17.688Z,13.66
2017-01-19T01:57:27.421Z,13.57
2017-01-19T01:58:37.651Z,13.64
2017-01-19T01:59:47.828Z,13.6
2017-01-19T02:00:57.994Z,13.55
2017-01-19T02:02:08.163Z,13.57
2017-01-19T02:03:18.336Z,13.57
2017-01-19T02:04:28.551Z,13.55
2017-01-19T02:05:38.312Z,13.49
2017-01-19T02:06:48.485Z,13.55
2017-01-19T02:07:58.650Z,13.55
2017-01-19T02:09:08.380Z,13.52
2017-01-19T02:10:18.161Z,13.49
2017-01-19T02:11:27.886Z,13.55
2017-01-19T02:12:38.504Z,13.49
2017-01-19T02:13:48.661Z,13.51
2017-01-19T02:14:57.950Z,13.48
2017-01-19T02:16:07.728Z,13.51
2017-01-19T02:17:17.454Z,13.48
2017-01-19T02:18:27.615Z,13.48
2017-01-19T02:19:37.341Z,13.45
2017-01-19T02:20:47.066Z,13.52
2017-01-19T02:21:56.401Z,13.49
2017-01-19T02:23:06.154Z,13.39
2017-01-19T02:24:15.879Z,13.39
2017-01-19T02:25:25.165Z,13.49
2017-01-19T02:26:35.771Z,13.38
2017-01-19T02:27:45.544Z,13.41
2017-01-19T02:28:55.714Z,13.42
2017-01-19T02:30:05.439Z,13.41
2017-01-19T02:31:15.624Z,13.46
2017-01-19T02:32:25.790Z,13.41
2017-01-19T02:33:35.573Z,13.45
2017-01-19T02:34:45.301Z,13.45
2017-01-19T02:35:55.039Z,13.3
2017-01-19T02:37:05.200Z,13.42
2017-01-19T02:38:15.370Z,13.33
2017-01-19T02:39:25.167Z,13.32
2017-01-19T02:40:34.901Z,13.3
2017-01-19T02:41:44.190Z,13.38
2017-01-19T02:42:53.475Z,13.28
2017-01-19T02:44:03.205Z,13.28
2017-01-19T02:45:12.979Z,13.32
2017-01-19T02:46:25.744Z,13.3
2017-01-19T02:47:35.910Z,13.32
2017-01-19T02:48:46.071Z,13.33
2017-01-19T02:49:55.792Z,13.28
2017-01-19T02:51:05.770Z,13.29
2017-01-19T02:52:15.523Z,13.32
2017-01-19T02:53:25.253Z,13.45
2017-01-19T02:54:35.414Z,13.42
2017-01-19T02:55:45.148Z,13.42
2017-01-19T02:56:54.921Z,13.41
2017-01-19T02:58:04.642Z,13.32
2017-01-19T02:59:14.808Z,13.38
2017-01-19T03:00:24.557Z,13.38
2017-01-19T03:01:34.283Z,13.32
2017-01-19T03:02:44.164Z,13.36
2017-01-19T03:03:54.330Z,13.22
2017-01-19T03:05:03.611Z,13.33
2017-01-19T03:06:13.349Z,13.38
2017-01-19T03:07:23.522Z,13.25
2017-01-19T03:08:33.739Z,13.3
2017-01-19T03:09:43.464Z,13.32
2017-01-19T03:10:53.193Z,13.29
2017-01-19T03:12:03.363Z,13.38
2017-01-19T03:13:13.533Z,13.3
2017-01-19T03:14:23.310Z,13.28
2017-01-19T03:15:33.036Z,13.28
2017-01-19T03:16:43.205Z,13.29
2017-01-19T03:17:52.934Z,13.26
2017-01-19T03:19:03.544Z,13.26
2017-01-19T03:20:13.317Z,13.25
2017-01-19T03:21:23.046Z,13.25
2017-01-19T03:22:33.216Z,13.26
2017-01-19T03:23:42.497Z,13.23
2017-01-19T03:24:52.671Z,13.19
2017-01-19T03:26:02.884Z,13.25
2017-01-19T03:27:12.169Z,13.25
2017-01-19T03:28:21.895Z,13.25
2017-01-19T03:29:32.059Z,13.23
2017-01-19T03:30:41.785Z,13.2
2017-01-19T03:31:51.562Z,13.17
2017-01-19T03:33:01.287Z,13.19
2017-01-19T03:34:11.897Z,13.22
2017-01-19T03:35:21.622Z,13.19
2017-01-19T03:36:31.351Z,13.19
2017-01-19T03:37:41.128Z,13.22
2017-01-19T03:38:51.298Z,13.14
2017-01-19T03:40:01.471Z,13.17
2017-01-19T03:41:11.203Z,13.12
2017-01-19T03:42:20.933Z,13.2
2017-01-19T03:43:31.146Z,13.17
2017-01-19T03:44:40.435Z,13.19
2017-01-19T03:45:50.601Z,13.2
2017-01-19T03:47:00.334Z,13.12
2017-01-19T03:48:09.611Z,13.15
2017-01-19T03:49:19.385Z,13.14
2017-01-19T03:50:29.554Z,13.14
2017-01-19T03:51:38.867Z,13.08
2017-01-19T03:52:48.589Z,13.2
2017-01-19T03:53:58.795Z,13.12
2017-01-19T03:55:09.015Z,13.01
2017-01-19T03:56:18.748Z,13.11
2017-01-19T03:57:28.470Z,13.11
2017-01-19T03:58:38.638Z,13.12
2017-01-19T03:59:48.816Z,13.19
2017-01-19T04:00:58.594Z,13.15
2017-01-19T04:02:07.875Z,13.07
2017-01-19T04:03:17.611Z,13.1
2017-01-19T04:04:26.909Z,13.12
2017-01-19T04:05:37.075Z,13.01
2017-01-19T04:06:46.848Z,13.11
2017-01-19T04:07:56.569Z,13.14
2017-01-19T04:09:06.746Z,13.12
2017-01-19T04:10:16.476Z,13.19
2017-01-19T04:11:26.649Z,13.08
2017-01-19T04:12:37.310Z,13.01
2017-01-19T04:13:46.591Z,13.08
2017-01-19T04:14:56.756Z,13.07
2017-01-19T04:16:06.482Z,13.05
2017-01-19T04:17:16.207Z,13.05
2017-01-19T04:18:26.420Z,13.11
2017-01-19T04:19:36.142Z,13
2017-01-19T04:20:46.311Z,13.07
2017-01-19T04:21:56.064Z,13.07
2017-01-19T04:23:05.781Z,13.15
2017-01-19T04:24:16.003Z,13.17
2017-01-19T04:25:26.172Z,13.11
2017-01-19T04:26:35.901Z,13.03
2017-01-19T04:27:45.626Z,13.08
2017-01-19T04:28:55.348Z,13.05
2017-01-19T04:30:05.569Z,13.17
2017-01-19T04:31:15.294Z,13.14
2017-01-19T04:32:25.464Z,13.08
2017-01-19T04:33:35.229Z,13.04
2017-01-19T04:34:44.954Z,13.12
2017-01-19T04:35:55.611Z,13.2
2017-01-19T04:37:05.333Z,13.11
2017-01-19T04:38:15.062Z,13.1
2017-01-19T04:39:25.227Z,13.19
2017-01-19T04:40:34.952Z,13.04
2017-01-19T04:41:44.730Z,13.15
2017-01-19T04:42:54.463Z,13.19
2017-01-19T04:44:04.208Z,13.05
2017-01-19T04:45:14.377Z,13.01
2017-01-19T04:46:24.111Z,13.04
2017-01-19T04:47:33.892Z,13.15
2017-01-19T04:48:44.057Z,13.11
2017-01-19T04:49:54.228Z,13.04
2017-01-19T04:51:03.984Z,13.11
2017-01-19T04:52:13.709Z,13.07
2017-01-19T04:53:23.492Z,13.07
2017-01-19T04:54:33.224Z,13.17
2017-01-19T04:55:43.828Z,13.17
2017-01-19T04:56:54.001Z,13.11
2017-01-19T04:58:04.175Z,13.08
2017-01-19T04:59:14.387Z,13.07
2017-01-19T05:00:24.108Z,13.19
2017-01-19T05:01:33.837Z,13.14
2017-01-19T05:02:43.558Z,13.2
2017-01-19T05:03:53.294Z,13.14
2017-01-19T05:05:03.075Z,13.15
2017-01-19T05:06:12.808Z,13.11
2017-01-19T05:07:22.536Z,13.17
2017-01-19T05:08:33.589Z,13.12
2017-01-19T05:09:43.310Z,13.11
2017-01-19T05:10:53.084Z,13.14
2017-01-19T05:12:02.812Z,13.05
2017-01-19T05:13:12.561Z,13.15
2017-01-19T05:14:22.729Z,13.14
2017-01-19T05:15:32.890Z,13.2
2017-01-19T05:16:42.663Z,13.07
2017-01-19T05:17:52.836Z,13.19
2017-01-19T05:19:02.117Z,13.19
2017-01-19T05:20:11.837Z,13.23
2017-01-19T05:21:22.019Z,13.23
2017-01-19T05:22:31.799Z,13.2
2017-01-19T05:23:41.968Z,13.25
2017-01-19T05:24:52.133Z,13.25
2017-01-19T05:26:02.306Z,13.22
2017-01-19T05:27:11.595Z,13.28
2017-01-19T05:28:21.380Z,13.28
2017-01-19T05:29:30.677Z,13.22
2017-01-19T05:30:40.406Z,13.25
2017-01-19T05:31:49.690Z,13.14
2017-01-19T05:32:59.864Z,13.28
2017-01-19T05:34:09.305Z,13.25
2017-01-19T05:35:19.469Z,13.25
2017-01-19T05:36:29.631Z,13.22
2017-01-19T05:37:38.908Z,13.22
2017-01-19T05:38:48.633Z,13.22
2017-01-19T05:39:58.415Z,13.25
2017-01-19T05:41:08.583Z,13.22
2017-01-19T05:42:18.313Z,13.36
2017-01-19T05:43:27.594Z,13.23
2017-01-19T05:44:36.875Z,13.28
2017-01-19T05:45:47.096Z,13.28
2017-01-19T05:46:56.825Z,13.36
2017-01-19T05:48:06.550Z,13.39
2017-01-19T05:49:16.715Z,13.39
2017-01-19T05:50:26.440Z,13.32
2017-01-19T05:51:36.221Z,13.32
2017-01-19T05:52:46.387Z,13.29
2017-01-19T05:53:56.112Z,13.41
2017-01-19T05:55:05.416Z,13.36
2017-01-19T05:56:15.586Z,13.33
2017-01-19T05:57:26.243Z,13.39
2017-01-19T05:58:36.416Z,13.25
2017-01-19T05:59:46.577Z,13.38
2017-01-19T06:00:56.746Z,13.33
2017-01-19T06:02:06.912Z,13.36
2017-01-19T06:03:16.244Z,13.23
2017-01-19T06:04:26.413Z,13.32
2017-01-19T06:05:36.139Z,13.36
2017-01-19T06:06:45.908Z,13.3
2017-01-19T06:07:56.513Z,13.28
2017-01-19T06:09:06.286Z,13.36
2017-01-19T06:10:16.020Z,13.29
2017-01-19T06:11:26.184Z,13.3
2017-01-19T06:12:35.914Z,13.28
2017-01-19T06:13:46.079Z,13.3
2017-01-19T06:14:55.852Z,13.36
2017-01-19T06:16:05.133Z,13.28
2017-01-19T06:17:15.310Z,13.3
2017-01-19T06:18:25.919Z,13.29
2017-01-19T06:19:35.644Z,13.28
2017-01-19T06:20:44.974Z,13.28
2017-01-19T06:21:54.703Z,13.28
2017-01-19T06:23:04.436Z,13.23
2017-01-19T06:24:14.601Z,13.25
2017-01-19T06:25:24.779Z,13.23
2017-01-19T06:26:34.556Z,13.3
2017-01-19T06:27:44.729Z,13.32
2017-01-19T06:28:54.450Z,13.26
2017-01-19T06:30:04.623Z,13.26
2017-01-19T06:31:14.792Z,13.26
2017-01-19T06:32:24.566Z,13.26
2017-01-19T06:33:34.735Z,13.23
2017-01-19T06:34:44.456Z,13.26
2017-01-19T06:35:54.177Z,13.29
2017-01-19T06:37:03.902Z,13.26
2017-01-19T06:38:13.676Z,13.14
2017-01-19T06:39:23.845Z,13.26
2017-01-19T06:40:33.570Z,13.26
2017-01-19T06:41:43.294Z,13.19
2017-01-19T06:42:53.016Z,13.22
2017-01-19T06:44:02.789Z,13.25
2017-01-19T06:45:12.523Z,13.33
2017-01-19T06:46:22.252Z,13.25
2017-01-19T06:47:31.977Z,13.23
2017-01-19T06:48:42.150Z,13.26
2017-01-19T06:49:52.803Z,13.23
2017-01-19T06:51:02.972Z,13.25
2017-01-19T06:52:13.142Z,13.25
2017-01-19T06:53:23.319Z,13.26
2017-01-19T06:54:33.496Z,13.26
2017-01-19T06:55:43.278Z,13.19
2017-01-19T06:56:53.002Z,13.28
2017-01-19T06:58:02.723Z,13.26
2017-01-19T06:59:12.449Z,13.25
2017-01-19T07:00:22.182Z,13.25
2017-01-19T07:01:32.399Z,13.25
2017-01-19T07:02:41.680Z,13.29
2017-01-19T07:03:51.841Z,13.19
2017-01-19T07:05:01.563Z,13.19
2017-01-19T07:06:11.288Z,13.25
2017-01-19T07:07:21.089Z,13.23
2017-01-19T07:08:30.382Z,13.19
2017-01-19T07:09:40.543Z,13.23
2017-01-19T07:10:50.717Z,13.26
2017-01-19T07:12:00.890Z,13.25
2017-01-19T07:13:11.103Z,13.17
2017-01-19T07:14:20.828Z,13.28
2017-01-19T07:15:30.997Z,13.25
2017-01-19T07:16:41.166Z,13.25
2017-01-19T07:17:51.331Z,13.26
2017-01-19T07:19:01.101Z,13.28
2017-01-19T07:20:10.838Z,13.25
2017-01-19T07:21:21.007Z,13.22
2017-01-19T07:22:31.180Z,13.25
2017-01-19T07:23:40.909Z,13.28
2017-01-19T07:24:50.715Z,13.28
2017-01-19T07:26:00.443Z,13.23
2017-01-19T07:27:10.160Z,13.25
2017-01-19T07:28:19.886Z,13.25
2017-01-19T07:29:29.615Z,13.17
2017-01-19T07:30:40.276Z,13.22
2017-01-19T07:31:50.445Z,13.25
2017-01-19T07:33:00.170Z,13.22
2017-01-19T07:34:09.451Z,13.19
2017-01-19T07:35:19.176Z,13.25
2017-01-19T07:36:29.397Z,13.22
2017-01-19T07:37:39.126Z,13.25
2017-01-19T07:38:48.847Z,13.23
2017-01-19T07:39:58.584Z,13.28
2017-01-19T07:41:08.761Z,13.23
2017-01-19T07:42:18.978Z,13.25
2017-01-19T07:43:29.139Z,13.26
2017-01-19T07:44:38.428Z,13.28
2017-01-19T07:45:48.605Z,13.25
2017-01-19T07:46:58.774Z,13.22
2017-01-19T07:48:08.135Z,13.23
2017-01-19T07:49:17.856Z,13.28
2017-01-19T07:50:27.581Z,13.26
2017-01-19T07:51:37.750Z,13.25
2017-01-19T07:52:47.475Z,13.26
2017-01-19T07:53:57.252Z,13.15
2017-01-19T07:55:06.533Z,13.25
2017-01-19T07:56:16.258Z,13.22
2017-01-19T07:57:25.988Z,13.2
2017-01-19T07:58:35.721Z,13.29
2017-01-19T07:59:45.498Z,13.23
2017-01-19T08:00:55.218Z,13.25
2017-01-19T08:02:05.392Z,13.23
2017-01-19T08:03:15.568Z,13.32
2017-01-19T08:04:25.290Z,13.28
2017-01-19T08:05:35.063Z,13.36
2017-01-19T08:06:44.788Z,13.2
2017-01-19T08:07:54.953Z,13.39
2017-01-19T08:09:04.679Z,13.38
2017-01-19T08:10:14.412Z,13.33
2017-01-19T08:11:24.201Z,13.39
2017-01-19T08:12:34.365Z,13.36
2017-01-19T08:13:44.967Z,13.33
2017-01-19T08:14:54.692Z,13.36
2017-01-19T08:16:04.413Z,13.33
2017-01-19T08:17:14.194Z,13.44
2017-01-19T08:18:23.924Z,13.36
2017-01-19T08:19:33.656Z,13.42
2017-01-19T08:20:43.822Z,13.32
2017-01-19T08:21:53.995Z,13.42
2017-01-19T08:23:04.212Z,13.36
2017-01-19T08:24:13.497Z,13.41
2017-01-19T08:25:23.222Z,13.38
2017-01-19T08:26:32.947Z,13.46
2017-01-19T08:27:42.672Z,13.39
2017-01-19T08:28:52.001Z,13.45
2017-01-19T08:30:01.727Z,13.41
2017-01-19T08:31:11.460Z,13.48
2017-01-19T08:32:21.625Z,13.44
2017-01-19T08:33:30.910Z,13.39
2017-01-19T08:34:40.395Z,13.49
2017-01-19T08:35:50.565Z,13.49
2017-01-19T08:37:00.290Z,13.49
2017-01-19T08:38:10.015Z,13.45
2017-01-19T08:39:19.740Z,13.59
2017-01-19T08:40:29.519Z,13.52
2017-01-19T08:41:38.826Z,13.55
2017-01-19T08:42:48.548Z,13.59
2017-01-19T08:43:58.281Z,13.6
2017-01-19T08:45:08.454Z,13.55
2017-01-19T08:46:19.143Z,13.6
2017-01-19T08:47:28.872Z,13.52
2017-01-19T08:48:38.601Z,13.55
2017-01-19T08:49:48.775Z,13.64
2017-01-19T08:50:58.500Z,13.62
2017-01-19T08:52:08.277Z,13.63
2017-01-19T08:53:18.450Z,13.62
2017-01-19T08:54:28.627Z,13.62
2017-01-19T08:55:38.801Z,13.62
2017-01-19T08:56:48.526Z,13.67
2017-01-19T08:57:59.195Z,13.64
2017-01-19T08:59:08.924Z,13.64
2017-01-19T09:00:19.537Z,13.7
2017-01-19T09:01:29.271Z,13.66
2017-01-19T09:02:38.551Z,13.67
2017-01-19T09:03:47.881Z,13.77
2017-01-19T09:04:57.642Z,13.78
2017-01-19T09:06:07.367Z,13.78
2017-01-19T09:07:17.100Z,13.78
2017-01-19T09:08:26.830Z,13.79
2017-01-19T09:09:36.607Z,13.77
2017-01-19T09:10:45.896Z,13.82
2017-01-19T09:11:56.081Z,13.75
2017-01-19T09:13:06.250Z,13.82
2017-01-19T09:14:16.427Z,13.82
2017-01-19T09:15:26.206Z,13.77
2017-01-19T09:16:35.958Z,13.84
2017-01-19T09:17:45.267Z,13.91
2017-01-19T09:18:55.436Z,13.82
2017-01-19T09:20:05.601Z,13.91
2017-01-19T09:21:15.378Z,13.92
2017-01-19T09:22:25.099Z,13.87
2017-01-19T09:23:34.824Z,13.89
2017-01-19T09:24:44.553Z,13.89
2017-01-19T09:25:55.174Z,13.95
2017-01-19T09:27:04.987Z,13.89
2017-01-19T09:28:15.592Z,13.92
2017-01-19T09:29:25.761Z,13.95
2017-01-19T09:30:35.930Z,14.02
2017-01-19T09:31:45.683Z,14.07
2017-01-19T09:32:55.912Z,13.97
2017-01-19T09:34:06.089Z,14.02
2017-01-19T09:35:15.810Z,13.99
2017-01-19T09:36:25.539Z,14.02
2017-01-19T09:37:35.256Z,14.02
2017-01-19T09:38:45.922Z,14.03
2017-01-19T09:39:56.083Z,13.95
2017-01-19T09:41:05.364Z,13.92
2017-01-19T09:42:15.541Z,13.89
2017-01-19T09:43:25.706Z,13.96
2017-01-19T09:44:35.931Z,13.88
2017-01-19T09:45:45.213Z,13.88
2017-01-19T09:46:55.381Z,13.89
2017-01-19T09:48:05.559Z,13.92
2017-01-19T09:49:15.756Z,13.91
2017-01-19T09:50:25.545Z,13.89
2017-01-19T09:51:35.274Z,13.91
2017-01-19T09:52:44.995Z,13.95
2017-01-19T09:53:54.736Z,13.96
2017-01-19T09:55:04.906Z,13.95
2017-01-19T09:56:15.127Z,13.89
2017-01-19T09:57:25.284Z,13.96
2017-01-19T09:58:34.565Z,13.89
2017-01-19T09:59:44.739Z,13.95
2017-01-19T10:00:54.909Z,13.92
2017-01-19T10:02:05.137Z,14.07
2017-01-19T10:03:14.862Z,14
2017-01-19T10:04:24.591Z,14.1
2017-01-19T10:05:34.749Z,14.09
2017-01-19T10:06:44.477Z,14.07
2017-01-19T10:07:54.259Z,14.09
2017-01-19T10:09:04.440Z,14.07
2017-01-19T10:10:14.613Z,14.03
2017-01-19T10:11:24.342Z,14.14
2017-01-19T10:12:33.627Z,14.14
2017-01-19T10:13:43.849Z,14.17
2017-01-19T10:14:54.017Z,14.18
2017-01-19T10:16:03.743Z,14.18
2017-01-19T10:17:13.905Z,14.27
2017-01-19T10:18:23.630Z,14.28
2017-01-19T10:19:33.411Z,14.29
2017-01-19T10:20:44.020Z,14.35
2017-01-19T10:21:53.745Z,14.25
2017-01-19T10:23:03.914Z,14.36
2017-01-19T10:24:14.092Z,14.4
2017-01-19T10:25:23.889Z,14.43
2017-01-19T10:26:34.062Z,14.47
2017-01-19T10:27:44.223Z,14.5
2017-01-19T10:28:53.512Z,14.54
2017-01-19T10:30:04.125Z,14.6
2017-01-19T10:31:14.338Z,14.62
2017-01-19T10:32:24.068Z,14.65
2017-01-19T10:33:34.241Z,14.7
2017-01-19T10:34:44.418Z,14.72
2017-01-19T10:35:54.143Z,14.7
2017-01-19T10:37:03.916Z,14.69
2017-01-19T10:38:13.638Z,14.75
2017-01-19T10:39:23.807Z,14.78
2017-01-19T10:40:33.536Z,14.89
2017-01-19T10:41:43.269Z,14.98
2017-01-19T10:42:53.051Z,14.95
2017-01-19T10:44:03.220Z,14.95
2017-01-19T10:45:13.394Z,14.95
2017-01-19T10:46:23.126Z,15.07
2017-01-19T10:47:32.847Z,15.16
2017-01-19T10:48:42.624Z,15.17
2017-01-19T10:49:52.354Z,15.17
2017-01-19T10:51:02.083Z,15.11
2017-01-19T10:52:12.693Z,15.13
2017-01-19T10:53:22.418Z,15.17
2017-01-19T10:54:32.195Z,15.34
2017-01-19T10:55:41.924Z,15.29
2017-01-19T10:56:52.101Z,15.32
2017-01-19T10:58:01.827Z,15.35
2017-01-19T10:59:11.560Z,15.39
2017-01-19T11:00:21.333Z,15.39
2017-01-19T11:01:30.622Z,15.57
2017-01-19T11:02:40.795Z,15.53
2017-01-19T11:03:50.969Z,15.64
2017-01-19T11:05:01.582Z,15.67
2017-01-19T11:06:11.359Z,15.69
2017-01-19T11:07:21.108Z,15.75
2017-01-19T11:08:30.842Z,15.75
2017-01-19T11:09:40.575Z,15.8
2017-01-19T11:10:50.300Z,15.87
2017-01-19T11:12:00.101Z,15.89
2017-01-19T11:13:09.830Z,15.92
2017-01-19T11:14:19.560Z,15.96
2017-01-19T11:15:29.725Z,15.9
2017-01-19T11:16:39.906Z,16
2017-01-19T11:17:50.123Z,16.08
2017-01-19T11:18:59.880Z,16.09
2017-01-19T11:20:10.049Z,16.07
2017-01-19T11:21:19.775Z,16.09
2017-01-19T11:22:30.396Z,16.11
2017-01-19T11:23:40.642Z,16.17
2017-01-19T11:24:50.395Z,16.27
2017-01-19T11:26:00.120Z,16.17
2017-01-19T11:27:09.846Z,16.25
2017-01-19T11:28:19.578Z,16.23
2017-01-19T11:29:29.356Z,16.33
2017-01-19T11:30:38.653Z,16.28
2017-01-19T11:31:48.823Z,16.33
2017-01-19T11:32:59.000Z,16.31
2017-01-19T11:34:08.737Z,16.38
2017-01-19T11:35:18.510Z,16.46
2017-01-19T11:36:28.248Z,16.42
2017-01-19T11:37:39.317Z,16.34
2017-01-19T11:38:49.070Z,16.49
2017-01-19T11:39:58.799Z,16.52
2017-01-19T11:41:09.024Z,16.48
2017-01-19T11:42:19.194Z,16.45
2017-01-19T11:43:29.812Z,16.48
2017-01-19T11:44:39.980Z,16.5
2017-01-19T11:45:50.154Z,16.66
2017-01-19T11:46:59.935Z,16.6
2017-01-19T11:48:09.220Z,16.63
2017-01-19T11:49:18.950Z,16.7
2017-01-19T11:50:28.683Z,16.73
2017-01-19T11:51:38.872Z,16.71
2017-01-19T11:52:49.089Z,16.78
2017-01-19T11:53:58.823Z,16.76
2017-01-19T11:55:08.559Z,16.79
2017-01-19T11:56:17.837Z,16.73
2017-01-19T11:57:28.014Z,16.81
2017-01-19T11:58:37.794Z,16.76
2017-01-19T11:59:47.965Z,16.81
2017-01-19T12:00:58.158Z,16.88
2017-01-19T12:02:07.883Z,16.85
2017-01-19T12:03:17.613Z,16.86
2017-01-19T12:04:27.392Z,16.86
2017-01-19T12:05:38.003Z,16.89
2017-01-19T12:06:47.729Z,16.94
2017-01-19T12:07:57.465Z,16.96
2017-01-19T12:09:07.639Z,17
2017-01-19T12:10:17.412Z,16.94
2017-01-19T12:11:27.145Z,17
2017-01-19T12:12:37.759Z,16.93
2017-01-19T12:13:47.488Z,17.08
2017-01-19T12:14:57.217Z,17.07
2017-01-19T12:16:06.999Z,17.07
2017-01-19T12:17:17.168Z,17.06
2017-01-19T12:18:26.897Z,17.06
2017-01-19T12:19:37.078Z,17.07
2017-01-19T12:20:47.243Z,17.04
2017-01-19T12:21:57.469Z,17.12
2017-01-19T12:23:07.638Z,17.12
2017-01-19T12:24:17.807Z,17.14
2017-01-19T12:25:27.537Z,17.07
2017-01-19T12:26:37.706Z,17.19
2017-01-19T12:27:47.587Z,17.03
2017-01-19T12:28:57.312Z,17.08
2017-01-19T12:30:07.046Z,17.18
2017-01-19T12:31:17.215Z,17.23
2017-01-19T12:32:27.387Z,17.16
2017-01-19T12:33:37.604Z,17.15
2017-01-19T12:34:47.781Z,17.23
2017-01-19T12:35:57.954Z,17.08
2017-01-19T12:37:08.119Z,17.16
2017-01-19T12:38:17.849Z,17.16
2017-01-19T12:39:27.626Z,17.21
2017-01-19T12:40:37.354Z,17.15
2017-01-19T12:41:47.080Z,17.26
2017-01-19T12:42:56.816Z,17.25
2017-01-19T12:44:06.546Z,17.31
2017-01-19T12:45:16.327Z,17.31
2017-01-19T12:46:26.535Z,17.16
2017-01-19T12:47:35.825Z,17.3
2017-01-19T12:48:46.438Z,17.23
2017-01-19T12:49:56.171Z,17.23
2017-01-19T12:51:06.400Z,17.25
2017-01-19T12:52:16.137Z,17.23
2017-01-19T12:53:25.863Z,17.31
2017-01-19T12:54:36.027Z,17.25
2017-01-19T12:55:45.756Z,17.21
2017-01-19T12:56:55.534Z,17.28
2017-01-19T12:58:06.151Z,17.26
2017-01-19T12:59:15.885Z,17.31
2017-01-19T13:00:26.061Z,17.28
2017-01-19T13:01:35.786Z,17.26
2017-01-19T13:02:45.571Z,17.31
2017-01-19T13:03:55.316Z,17.3
2017-01-19T13:05:05.041Z,17.28
2017-01-19T13:06:14.779Z,17.23
2017-01-19T13:07:24.949Z,17.28
2017-01-19T13:08:34.725Z,17.25
2017-01-19T13:09:44.458Z,17.25
2017-01-19T13:10:54.191Z,17.25
2017-01-19T13:12:04.365Z,17.22
2017-01-19T13:13:14.538Z,17.3
2017-01-19T13:14:24.322Z,17.28
2017-01-19T13:15:34.496Z,17.28
2017-01-19T13:16:44.225Z,17.16
2017-01-19T13:17:54.442Z,17.22
2017-01-19T13:19:04.616Z,17.26
2017-01-19T13:20:14.837Z,17.16
2017-01-19T13:21:24.562Z,17.18
2017-01-19T13:22:35.175Z,17.25
2017-01-19T13:23:45.820Z,17.23
2017-01-19T13:24:55.549Z,17.31
2017-01-19T13:26:05.771Z,17.31
2017-01-19T13:27:15.504Z,17.28
2017-01-19T13:28:25.681Z,17.22
2017-01-19T13:29:35.850Z,17.21
2017-01-19T13:30:46.027Z,17.22
2017-01-19T13:31:56.258Z,17.22
2017-01-19T13:33:05.985Z,17.14
2017-01-19T13:34:16.603Z,17.23
2017-01-19T13:35:26.328Z,17.23
2017-01-19T13:36:36.501Z,17.15
2017-01-19T13:37:46.723Z,17.16
2017-01-19T13:38:56.897Z,17.22
2017-01-19T13:40:06.637Z,17.19
2017-01-19T13:41:16.810Z,17.18
2017-01-19T13:42:26.539Z,17.18
2017-01-19T13:43:36.315Z,17.21
2017-01-19T13:44:46.933Z,17.18
2017-01-19T13:45:57.106Z,17.19
2017-01-19T13:47:07.275Z,17.23
2017-01-19T13:48:17.002Z,17.18
2017-01-19T13:49:26.773Z,17.18
2017-01-19T13:50:36.950Z,17.14
2017-01-19T13:51:47.559Z,17.14
2017-01-19T13:52:57.292Z,17.18
2017-01-19T13:54:07.021Z,17.23
2017-01-19T13:55:16.806Z,17.22
2017-01-19T13:56:26.543Z,17.18
2017-01-19T13:57:37.152Z,17.18
2017-01-19T13:58:46.881Z,17.19
2017-01-19T13:59:56.606Z,17.15
2017-01-19T14:01:06.392Z,17.12
2017-01-19T14:02:16.569Z,17.08
2017-01-19T14:03:26.742Z,17.15
2017-01-19T14:04:36.471Z,17.07
2017-01-19T14:05:45.764Z,17.03
2017-01-19T14:06:55.997Z,17.14
2017-01-19T14:08:06.167Z,17.08
2017-01-19T14:09:15.900Z,17.08
2017-01-19T14:10:25.629Z,17.07
2017-01-19T14:11:35.358Z,17.06
2017-01-19T14:12:45.579Z,16.93
2017-01-19T14:13:55.748Z,17
2017-01-19T14:15:05.474Z,16.89
2017-01-19T14:16:16.091Z,16.83
2017-01-19T14:17:25.824Z,16.83
2017-01-19T14:18:35.169Z,16.75
2017-01-19T14:19:45.338Z,16.7
2017-01-19T14:20:55.512Z,16.71
2017-01-19T14:22:05.236Z,16.76
2017-01-19T14:23:14.961Z,16.58
2017-01-19T14:24:25.183Z,16.63
2017-01-19T14:25:34.916Z,16.52
2017-01-19T14:26:45.537Z,16.5
2017-01-19T14:27:55.706Z,16.56
2017-01-19T14:29:05.876Z,16.46
2017-01-19T14:30:15.649Z,16.48
2017-01-19T14:31:25.378Z,16.41
2017-01-19T14:32:35.555Z,16.42
2017-01-19T14:33:45.724Z,16.42
2017-01-19T14:34:56.341Z,16.35
2017-01-19T14:36:07.447Z,16.34
2017-01-19T14:37:17.175Z,16.33
2017-01-19T14:38:27.345Z,16.27
2017-01-19T14:39:37.514Z,16.33
2017-01-19T14:40:47.243Z,16.3
2017-01-19T14:41:57.468Z,16.25
2017-01-19T14:43:07.638Z,16.2
2017-01-19T14:44:17.807Z,16.21
2017-01-19T14:45:27.532Z,16.15
2017-01-19T14:46:37.269Z,16.14
2017-01-19T14:47:47.490Z,16.2
2017-01-19T14:48:58.096Z,16.08
2017-01-19T14:50:07.820Z,16.15
2017-01-19T14:51:17.546Z,16.01
2017-01-19T14:52:27.716Z,16.04
2017-01-19T14:53:37.940Z,15.97
2017-01-19T14:54:47.683Z,16
2017-01-19T14:55:57.848Z,15.96
2017-01-19T14:57:08.016Z,15.83
2017-01-19T14:58:17.745Z,15.93
2017-01-19T14:59:27.966Z,15.87
2017-01-19T15:00:37.703Z,15.75
2017-01-19T15:01:47.869Z,15.8
2017-01-19T15:02:58.043Z,15.72
2017-01-19T15:04:07.801Z,15.75